createdAt,value
2019-01-15T00:02:27.684Z,12.70
2019-01-15T00:04:58.405Z,9.23
2019-01-15T00:07:29.352Z,9.83
2019-01-15T00:09:59.757Z,11.63
2019-01-15T00:12:30.000Z,8.67
2019-01-15T00:15:00.277Z,12.53
2019-01-15T00:17:30.507Z,14.07
2019-01-15T00:20:00.799Z,11.00
2019-01-15T00:22:33.884Z,10.60
2019-01-15T00:25:04.612Z,10.33
2019-01-15T00:27:35.757Z,10.10
2019-01-15T00:30:08.445Z,12.80
2019-01-15T00:32:38.619Z,15.17
2019-01-15T00:35:10.030Z,11.10
2019-01-15T00:37:40.261Z,13.13
2019-01-15T00:40:13.135Z,9.17
2019-01-15T00:42:43.457Z,14.87
2019-01-15T00:45:13.973Z,13.27
2019-01-15T00:47:44.258Z,10.47
2019-01-15T00:50:15.620Z,12.77
2019-01-15T00:52:45.811Z,11.93
2019-01-15T00:55:16.373Z,10.43
2019-01-15T00:57:46.552Z,13.20
2019-01-15T01:00:19.894Z,13.60
2019-01-15T01:02:50.990Z,14.63
2019-01-15T01:05:21.693Z,14.80
2019-01-15T01:07:51.894Z,11.20
2019-01-15T01:10:22.115Z,13.97
2019-01-15T01:12:52.618Z,14.00
2019-01-15T01:15:23.514Z,15.73
2019-01-15T01:17:53.734Z,14.50
2019-01-15T01:20:23.956Z,14.13
2019-01-15T01:22:54.860Z,15.20
2019-01-15T01:25:25.080Z,13.70
2019-01-15T01:27:55.235Z,13.97
2019-01-15T01:30:25.465Z,15.70
2019-01-15T01:32:55.664Z,13.90
2019-01-15T01:35:25.942Z,15.60
2019-01-15T01:37:56.145Z,13.33
2019-01-15T01:40:26.446Z,13.17
2019-01-15T01:42:56.760Z,14.97
2019-01-15T01:45:27.072Z,16.77
2019-01-15T01:47:57.934Z,14.50
2019-01-15T01:50:28.559Z,14.67
2019-01-15T01:52:58.774Z,17.33
2019-01-15T01:55:29.052Z,17.27
2019-01-15T01:57:59.548Z,17.17
2019-01-15T02:00:29.846Z,15.57
2019-01-15T02:03:00.062Z,15.27
2019-01-15T02:05:30.311Z,18.17
2019-01-15T02:08:00.504Z,14.33
2019-01-15T02:10:30.747Z,18.07
2019-01-15T02:13:01.309Z,15.67
2019-01-15T02:15:31.949Z,14.77
2019-01-15T02:18:02.422Z,13.40
2019-01-15T02:20:32.667Z,16.70
2019-01-15T02:23:03.201Z,15.17
2019-01-15T02:25:33.426Z,16.27
2019-01-15T02:28:03.637Z,16.83
2019-01-15T02:30:33.959Z,15.27
2019-01-15T02:33:04.438Z,12.67
2019-01-15T02:35:34.703Z,14.47
2019-01-15T02:38:04.912Z,14.23
2019-01-15T02:40:35.137Z,14.33
2019-01-15T02:43:05.398Z,18.63
2019-01-15T02:45:35.681Z,16.97
2019-01-15T02:48:05.943Z,14.77
2019-01-15T02:50:36.563Z,16.53
2019-01-15T02:53:07.889Z,15.03
2019-01-15T02:55:38.100Z,13.80
2019-01-15T02:58:08.749Z,18.87
2019-01-15T03:00:38.957Z,15.23
2019-01-15T03:03:09.150Z,17.53
2019-01-15T03:05:40.840Z,19.87
2019-01-15T03:08:11.098Z,20.07
2019-01-15T03:10:41.453Z,18.47
2019-01-15T03:13:11.561Z,16.70
2019-01-15T03:15:41.863Z,15.57
2019-01-15T03:18:12.079Z,14.43
2019-01-15T03:20:42.507Z,15.73
2019-01-15T03:23:12.726Z,16.90
2019-01-15T03:25:43.016Z,17.33
2019-01-15T03:28:13.195Z,16.37
2019-01-15T03:30:43.429Z,15.87
2019-01-15T03:33:13.733Z,20.03
2019-01-15T03:35:44.348Z,19.07
2019-01-15T03:38:14.519Z,16.97
2019-01-15T03:40:45.178Z,16.60
2019-01-15T03:43:15.400Z,17.50
2019-01-15T03:45:45.779Z,16.80
2019-01-15T03:48:16.024Z,17.30
2019-01-15T03:50:46.323Z,16.90
2019-01-15T03:53:16.683Z,18.73
2019-01-15T03:55:47.287Z,18.43
2019-01-15T03:58:17.540Z,18.33
2019-01-15T04:00:47.736Z,15.80
2019-01-15T04:03:18.344Z,16.90
2019-01-15T04:05:48.568Z,21.47
2019-01-15T04:08:18.810Z,18.70
2019-01-15T04:10:49.119Z,19.50
2019-01-15T04:13:19.391Z,18.97
2019-01-15T04:15:50.377Z,20.03
2019-01-15T04:18:20.557Z,19.33
2019-01-15T04:20:50.929Z,23.03
2019-01-15T04:23:21.209Z,25.60
2019-01-15T04:25:51.429Z,17.70
2019-01-15T04:28:21.940Z,15.30
2019-01-15T04:30:52.158Z,19.97
2019-01-15T04:33:22.417Z,18.13
2019-01-15T04:35:52.662Z,20.53
2019-01-15T04:38:22.885Z,19.87
2019-01-15T04:40:53.422Z,18.00
2019-01-15T04:43:23.960Z,23.73
2019-01-15T04:45:54.198Z,19.03
2019-01-15T04:48:24.385Z,18.23
2019-01-15T04:50:54.979Z,24.10
2019-01-15T04:53:25.192Z,18.53
2019-01-15T04:55:55.822Z,18.77
2019-01-15T04:58:26.057Z,19.40
2019-01-15T05:00:56.369Z,20.90
2019-01-15T05:03:26.563Z,18.57
2019-01-15T05:05:56.808Z,18.37
2019-01-15T05:08:26.991Z,17.40
2019-01-15T05:10:57.290Z,19.83
2019-01-15T05:13:27.770Z,21.63
2019-01-15T05:15:58.149Z,17.67
2019-01-15T05:18:28.709Z,18.20
2019-01-15T05:20:58.958Z,17.23
2019-01-15T05:23:29.161Z,22.10
2019-01-15T05:26:00.528Z,19.80
2019-01-15T05:28:30.825Z,20.67
2019-01-15T05:31:01.137Z,17.57
2019-01-15T05:33:31.403Z,17.73
2019-01-15T05:36:01.708Z,17.20
2019-01-15T05:38:32.363Z,20.13
2019-01-15T05:41:02.984Z,18.87
2019-01-15T05:43:35.723Z,20.13
2019-01-15T05:46:05.277Z,16.50
2019-01-15T05:48:37.234Z,16.43
2019-01-15T05:51:23.877Z,17.87
2019-01-15T05:53:54.089Z,18.20
2019-01-15T05:56:24.357Z,14.50
2019-01-15T05:58:54.566Z,17.50
2019-01-15T06:01:24.865Z,18.67
2019-01-15T06:03:55.083Z,17.83
2019-01-15T06:06:25.281Z,17.10
2019-01-15T06:08:55.508Z,20.50
2019-01-15T06:11:25.763Z,20.47
2019-01-15T06:13:56.258Z,17.37
2019-01-15T06:16:26.558Z,17.47
2019-01-15T06:18:56.780Z,19.93
2019-01-15T06:21:27.324Z,16.07
2019-01-15T06:23:57.546Z,19.70
2019-01-15T06:26:27.751Z,16.53
2019-01-15T06:28:58.257Z,21.83
2019-01-15T06:31:28.484Z,18.00
2019-01-15T06:33:59.052Z,16.03
2019-01-15T06:36:29.209Z,18.53
2019-01-15T06:38:59.444Z,15.23
2019-01-15T06:41:29.750Z,19.13
2019-01-15T06:44:00.357Z,16.40
2019-01-15T06:46:30.656Z,19.37
2019-01-15T06:49:00.833Z,15.33
2019-01-15T06:51:31.445Z,14.77
2019-01-15T06:54:02.115Z,13.60
2019-01-15T06:56:32.407Z,16.70
2019-01-15T06:59:02.585Z,12.17
2019-01-15T07:01:32.906Z,16.40
2019-01-15T07:04:03.121Z,18.53
2019-01-15T07:06:33.302Z,15.93
2019-01-15T07:09:05.200Z,15.60
2019-01-15T07:11:35.484Z,15.83
2019-01-15T07:14:05.687Z,14.47
2019-01-15T07:16:35.959Z,17.40
2019-01-15T07:19:06.129Z,16.87
2019-01-15T07:21:36.522Z,18.10
2019-01-15T07:24:06.773Z,17.17
2019-01-15T07:26:36.996Z,13.07
2019-01-15T07:29:07.223Z,14.60
2019-01-15T07:31:37.808Z,16.57
2019-01-15T07:34:07.999Z,13.57
2019-01-15T07:36:38.227Z,16.83
2019-01-15T07:39:09.517Z,17.60
2019-01-15T07:41:39.841Z,11.23
2019-01-15T07:44:10.176Z,10.97
2019-01-15T07:46:40.417Z,18.77
2019-01-15T07:49:10.672Z,15.97
2019-01-15T07:51:41.228Z,12.87
2019-01-15T07:54:11.497Z,13.17
2019-01-15T07:56:42.055Z,14.07
2019-01-15T07:59:12.259Z,16.27
2019-01-15T08:01:43.961Z,13.00
2019-01-15T08:04:14.533Z,11.20
2019-01-15T08:06:44.773Z,17.70
2019-01-15T08:09:15.132Z,10.63
2019-01-15T08:11:45.406Z,11.20
2019-01-15T08:14:15.595Z,11.03
2019-01-15T08:16:45.847Z,10.37
2019-01-15T08:19:16.165Z,11.33
2019-01-15T08:21:46.459Z,11.23
2019-01-15T08:24:17.388Z,12.60
2019-01-15T08:26:47.596Z,10.30
2019-01-15T08:29:18.105Z,10.00
2019-01-15T08:31:48.406Z,13.77
2019-01-15T08:34:18.663Z,7.80
2019-01-15T08:36:48.891Z,12.13
2019-01-15T08:39:19.445Z,11.67
2019-01-15T08:41:49.922Z,12.20
2019-01-15T08:44:21.016Z,9.07
2019-01-15T08:46:51.211Z,12.23
2019-01-15T08:49:21.778Z,11.03
2019-01-15T08:51:52.220Z,10.33
2019-01-15T08:54:22.972Z,9.60
2019-01-15T08:56:53.601Z,10.83
2019-01-15T08:59:23.792Z,11.83
2019-01-15T09:01:54.374Z,10.80
2019-01-15T09:04:24.476Z,10.63
2019-01-15T09:06:54.670Z,12.17
2019-01-15T09:09:24.954Z,10.13
2019-01-15T09:11:55.259Z,12.03
2019-01-15T09:14:27.015Z,17.97
2019-01-15T09:16:57.442Z,13.07
2019-01-15T09:19:27.680Z,11.07
2019-01-15T09:21:57.829Z,12.03
2019-01-15T09:24:28.412Z,12.77
2019-01-15T09:26:58.700Z,15.20
2019-01-15T09:29:29.376Z,12.97
2019-01-15T09:32:00.014Z,9.07
2019-01-15T09:34:30.206Z,11.23
2019-01-15T09:37:00.417Z,13.20
2019-01-15T09:39:30.992Z,9.17
2019-01-15T09:42:01.187Z,11.50
2019-01-15T09:44:34.175Z,9.23
2019-01-15T09:47:03.292Z,9.90
2019-01-15T09:49:33.497Z,8.97
2019-01-15T09:52:04.179Z,9.13
2019-01-15T09:54:34.446Z,8.67
2019-01-15T09:57:04.969Z,11.40
2019-01-15T09:59:35.535Z,8.23
2019-01-15T10:02:05.952Z,8.60
2019-01-15T10:04:36.104Z,6.67
2019-01-15T10:07:06.334Z,9.87
2019-01-15T10:09:36.646Z,8.17
2019-01-15T10:12:06.854Z,9.17
2019-01-15T10:14:41.260Z,6.20
2019-01-15T10:17:09.035Z,9.20
2019-01-15T10:19:39.272Z,7.70
2019-01-15T10:22:09.827Z,12.07
2019-01-15T10:24:40.433Z,7.83
2019-01-15T10:27:11.494Z,8.00
2019-01-15T10:29:42.042Z,7.23
2019-01-15T10:32:42.564Z,7.13
2019-01-15T10:35:24.122Z,9.90
2019-01-15T10:37:54.423Z,10.67
2019-01-15T10:40:24.684Z,10.57
2019-01-15T10:42:54.973Z,9.00
2019-01-15T10:45:25.182Z,10.30
2019-01-15T10:47:57.039Z,5.97
2019-01-15T10:50:27.226Z,11.57
2019-01-15T10:52:57.561Z,7.73
2019-01-15T10:55:27.776Z,15.77
2019-01-15T10:57:58.518Z,12.50
2019-01-15T11:00:30.244Z,8.07
2019-01-15T11:03:00.541Z,9.57
2019-01-15T11:05:31.149Z,7.30
2019-01-15T11:08:01.328Z,5.60
2019-01-15T11:10:31.568Z,8.53
2019-01-15T11:13:01.810Z,13.83
2019-01-15T11:15:32.077Z,11.10
2019-01-15T11:18:05.029Z,6.17
2019-01-15T11:20:35.283Z,9.37
2019-01-15T11:23:05.975Z,9.60
2019-01-15T11:25:36.680Z,9.37
2019-01-15T11:28:07.170Z,10.07
2019-01-15T11:30:37.776Z,7.07
2019-01-15T11:33:08.491Z,6.63
2019-01-15T11:35:39.372Z,13.53
2019-01-15T11:38:09.680Z,7.50
2019-01-15T11:40:39.991Z,6.83
2019-01-15T11:43:10.348Z,7.70
2019-01-15T11:45:41.604Z,7.63
2019-01-15T11:48:13.113Z,6.80
2019-01-15T11:50:43.787Z,7.63
2019-01-15T11:53:14.491Z,10.30
2019-01-15T11:55:44.715Z,7.30
2019-01-15T11:58:15.177Z,9.63
2019-01-15T12:01:13.303Z,10.00
2019-01-15T12:04:01.949Z,9.53
2019-01-15T12:06:52.495Z,7.80
2019-01-15T12:09:47.669Z,8.40
2019-01-15T12:12:39.617Z,7.30
2019-01-15T12:15:28.817Z,8.47
2019-01-15T12:18:23.789Z,8.10
2019-01-15T12:21:12.954Z,12.87
2019-01-15T12:24:16.164Z,10.33
2019-01-15T12:26:57.118Z,8.10
2019-01-15T12:30:04.659Z,9.67
2019-01-15T12:32:52.879Z,8.40
2019-01-15T12:35:39.467Z,9.97
2019-01-15T12:38:34.526Z,11.80
2019-01-15T12:41:23.640Z,7.50
2019-01-15T12:44:11.620Z,9.13
2019-01-15T12:47:13.141Z,12.17
2019-01-15T12:50:05.066Z,7.83
2019-01-15T12:52:54.256Z,9.30
2019-01-15T12:55:46.600Z,8.87
2019-01-15T12:58:48.069Z,8.70
2019-01-15T13:01:49.427Z,10.17
2019-01-15T13:04:32.122Z,9.53
2019-01-15T13:07:30.690Z,10.80
2019-01-15T13:10:20.150Z,11.47
2019-01-15T13:13:27.447Z,11.83
2019-01-15T13:16:20.019Z,15.30
2019-01-15T13:19:18.154Z,10.50
2019-01-15T13:22:10.347Z,9.50
2019-01-15T13:24:58.066Z,8.80
2019-01-15T13:27:41.788Z,14.37
2019-01-15T13:30:23.825Z,8.53
2019-01-15T13:33:12.892Z,8.13
2019-01-15T13:36:00.862Z,9.63
2019-01-15T13:38:48.817Z,10.23
2019-01-15T13:41:40.747Z,6.77
2019-01-15T13:44:36.159Z,10.37
2019-01-15T13:47:35.437Z,12.30
2019-01-15T13:50:29.493Z,9.17
2019-01-15T13:53:17.333Z,10.70
2019-01-15T13:56:07.559Z,10.73
2019-01-15T13:58:55.395Z,8.73
2019-01-15T14:01:56.584Z,11.53
2019-01-15T14:04:48.551Z,10.93
2019-01-15T14:07:40.737Z,10.97
2019-01-15T14:10:30.171Z,7.17
2019-01-15T14:13:15.424Z,7.23
2019-01-15T14:16:10.419Z,7.97
2019-01-15T14:19:08.403Z,9.43
2019-01-15T14:21:57.661Z,6.07
2019-01-15T14:24:49.850Z,8.87
2019-01-15T14:27:52.162Z,8.60
2019-01-15T14:30:41.543Z,9.77
2019-01-15T14:33:40.094Z,5.07
2019-01-15T14:36:29.277Z,7.13
2019-01-15T14:39:12.157Z,6.33
2019-01-15T14:42:07.102Z,8.33
2019-01-15T14:44:55.507Z,10.10
2019-01-15T14:47:54.282Z,6.73
2019-01-15T14:50:30.768Z,7.57
2019-01-15T14:53:18.788Z,6.80
2019-01-15T14:56:17.417Z,6.90
2019-01-15T14:59:11.454Z,9.17
2019-01-15T15:02:08.392Z,7.63
2019-01-15T15:04:56.758Z,6.20
2019-01-15T15:07:50.116Z,8.13
2019-01-15T15:10:42.423Z,4.70
2019-01-15T15:13:22.863Z,6.17
2019-01-15T15:16:07.021Z,7.20
2019-01-15T15:18:56.619Z,4.50
2019-01-15T15:22:00.888Z,7.03
2019-01-15T15:24:49.208Z,5.03
2019-01-15T15:27:37.394Z,9.33
2019-01-15T15:30:32.808Z,8.57
2019-01-15T15:33:34.131Z,5.93
2019-01-15T15:36:30.933Z,5.00
2019-01-15T15:39:22.981Z,10.63
2019-01-15T15:42:12.555Z,5.47
2019-01-15T15:44:59.013Z,5.87
2019-01-15T15:47:48.164Z,4.30
2019-01-15T15:50:52.449Z,5.37
2019-01-15T15:53:59.913Z,6.97
2019-01-15T15:56:58.073Z,5.90
2019-01-15T15:59:47.612Z,6.03
2019-01-15T16:02:35.553Z,6.50
2019-01-15T16:05:29.291Z,7.97
2019-01-15T16:08:06.419Z,8.80
2019-01-15T16:11:05.514Z,8.03
2019-01-15T16:13:53.551Z,10.87
2019-01-15T16:16:41.648Z,7.13
2019-01-15T16:19:29.892Z,10.43
2019-01-15T16:22:21.785Z,7.00
2019-01-15T16:25:29.543Z,7.67
2019-01-15T16:28:27.677Z,8.70
2019-01-15T16:31:35.427Z,6.33
2019-01-15T16:34:42.988Z,9.80
2019-01-15T16:37:31.110Z,9.03
2019-01-15T16:40:20.327Z,11.27
2019-01-15T16:43:21.901Z,8.40
2019-01-15T16:46:14.366Z,6.33
2019-01-15T16:49:03.558Z,8.63
2019-01-15T16:51:58.877Z,7.13
2019-01-15T16:54:46.692Z,8.20
2019-01-15T16:57:36.532Z,8.43
2019-01-15T17:00:28.527Z,9.63
2019-01-15T17:03:16.661Z,8.23
2019-01-15T17:06:11.813Z,8.67
2019-01-15T17:09:01.273Z,9.57
2019-01-15T17:12:01.021Z,7.73
2019-01-15T17:14:59.684Z,6.93
2019-01-15T17:17:49.041Z,7.87
2019-01-15T17:20:54.631Z,9.30
2019-01-15T17:23:49.962Z,8.67
2019-01-15T17:27:57.917Z,7.83
2019-01-15T17:30:59.688Z,7.07
2019-01-15T17:33:47.912Z,7.40
2019-01-15T17:36:35.843Z,12.73
2019-01-15T17:39:28.092Z,11.50
2019-01-15T17:42:16.310Z,10.07
2019-01-15T17:44:59.582Z,7.00
2019-01-15T17:47:51.796Z,6.97
2019-01-15T17:50:39.626Z,9.03
2019-01-15T17:53:28.796Z,7.73
2019-01-15T17:56:30.545Z,8.13
2019-01-15T17:59:21.264Z,9.53
2019-01-15T18:02:09.518Z,5.30
2019-01-15T18:04:50.824Z,5.40
2019-01-15T18:07:38.695Z,7.50
2019-01-15T18:10:28.700Z,5.30
2019-01-15T18:13:33.356Z,7.80
2019-01-15T18:16:24.128Z,7.00
2019-01-15T18:19:03.614Z,5.73
2019-01-15T18:21:58.924Z,5.43
2019-01-15T18:24:51.199Z,4.30
2019-01-15T18:27:47.678Z,5.63
2019-01-15T18:30:46.624Z,3.60
2019-01-15T18:33:54.153Z,5.50
2019-01-15T18:36:49.984Z,4.10
2019-01-15T18:39:48.673Z,5.37
2019-01-15T18:42:43.805Z,4.03
2019-01-15T18:45:39.579Z,4.20
2019-01-15T18:48:43.885Z,4.20
2019-01-15T18:51:34.502Z,4.57
2019-01-15T18:54:23.915Z,4.97
2019-01-15T18:57:13.511Z,5.43
2019-01-15T19:00:21.591Z,4.50
2019-01-15T19:03:16.492Z,5.03
2019-01-15T19:06:17.830Z,5.73
2019-01-15T19:09:06.840Z,5.50
2019-01-15T19:11:56.413Z,5.13
2019-01-15T19:14:45.141Z,5.63
2019-01-15T19:17:43.620Z,6.00
2019-01-15T19:20:31.755Z,5.07
2019-01-15T19:23:23.878Z,3.80
2019-01-15T19:26:11.845Z,5.13
2019-01-15T19:29:01.031Z,5.00
2019-01-15T19:32:02.500Z,6.17
2019-01-15T19:34:47.904Z,5.37
2019-01-15T19:37:43.116Z,6.60
2019-01-15T19:40:35.841Z,6.67
2019-01-15T19:43:35.356Z,5.50
2019-01-15T19:46:23.560Z,3.80
2019-01-15T19:49:13.422Z,5.43
2019-01-15T19:52:05.731Z,3.90
2019-01-15T19:54:54.967Z,4.93
2019-01-15T19:57:41.152Z,5.87
2019-01-15T20:00:47.708Z,6.23
2019-01-15T20:03:45.864Z,4.53
2019-01-15T20:06:31.198Z,6.07
2019-01-15T20:09:14.993Z,4.53
2019-01-15T20:11:58.139Z,6.87
2019-01-15T20:14:46.007Z,5.40
2019-01-15T20:17:32.528Z,6.80
2019-01-15T20:20:26.727Z,6.03
2019-01-15T20:23:14.938Z,4.73
2019-01-15T20:26:16.365Z,3.87
2019-01-15T20:29:17.232Z,5.83
2019-01-15T20:32:14.747Z,4.53
2019-01-15T20:35:09.743Z,3.83
2019-01-15T20:37:50.177Z,4.40
2019-01-15T20:40:38.072Z,6.40
2019-01-15T20:43:18.369Z,6.73
2019-01-15T20:46:10.742Z,6.43
2019-01-15T20:49:00.259Z,8.10
2019-01-15T20:52:01.781Z,9.70
2019-01-15T20:54:51.405Z,8.23
2019-01-15T20:57:52.819Z,9.17
2019-01-15T21:00:50.941Z,9.33
2019-01-15T21:03:45.940Z,8.83
2019-01-15T21:06:40.923Z,9.90
2019-01-15T21:09:26.607Z,9.37
2019-01-15T21:12:18.848Z,11.23
2019-01-15T21:15:06.760Z,11.50
2019-01-15T21:17:56.814Z,9.63
2019-01-15T21:20:44.820Z,11.60
2019-01-15T21:23:40.436Z,9.27
2019-01-15T21:26:21.423Z,10.10
2019-01-15T21:29:10.696Z,9.93
2019-01-15T21:32:08.644Z,9.03
2019-01-15T21:34:57.894Z,11.37
2019-01-15T21:37:50.101Z,10.93
2019-01-15T21:40:42.083Z,12.23
2019-01-15T21:43:31.220Z,10.37
2019-01-15T21:46:19.000Z,12.23
2019-01-15T21:49:08.155Z,9.77
2019-01-15T21:52:12.464Z,11.50
2019-01-15T21:55:01.824Z,10.37
2019-01-15T21:57:51.533Z,13.13
2019-01-15T22:00:39.818Z,12.73
2019-01-15T22:03:47.381Z,10.03
2019-01-15T22:06:51.008Z,11.47
2019-01-15T22:09:39.204Z,11.03
2019-01-15T22:12:27.344Z,12.27
2019-01-15T22:15:15.249Z,11.73
2019-01-15T22:17:55.623Z,12.97
2019-01-15T22:20:42.077Z,11.83
2019-01-15T22:23:35.116Z,14.63
2019-01-15T22:26:18.960Z,14.03
2019-01-15T22:29:09.356Z,13.67
2019-01-15T22:31:52.790Z,13.20
2019-01-15T22:34:45.144Z,13.37
2019-01-15T22:37:43.651Z,12.93
2019-01-15T22:40:29.332Z,11.60
2019-01-15T22:43:10.401Z,12.83
2019-01-15T22:46:14.750Z,13.27
2019-01-15T22:49:08.833Z,12.77
2019-01-15T22:51:56.599Z,13.60
2019-01-15T22:54:37.855Z,14.70
2019-01-15T22:57:35.855Z,11.60
2019-01-15T23:00:38.271Z,13.27
2019-01-15T23:03:30.945Z,12.47
2019-01-15T23:06:18.119Z,14.30
2019-01-15T23:09:10.360Z,13.80
2019-01-15T23:12:02.565Z,13.70
2019-01-15T23:14:50.643Z,15.07
2019-01-15T23:17:39.244Z,16.80
2019-01-15T23:20:34.535Z,15.30
2019-01-15T23:23:27.000Z,15.67
2019-01-15T23:26:16.135Z,15.53
2019-01-15T23:29:08.889Z,14.30
2019-01-15T23:31:49.649Z,13.00
2019-01-15T23:34:42.081Z,19.40
2019-01-15T23:37:34.043Z,16.47
2019-01-15T23:40:23.009Z,14.97
2019-01-15T23:43:03.325Z,14.60
2019-01-15T23:46:01.671Z,16.73
2019-01-15T23:48:48.282Z,15.37
2019-01-15T23:51:28.545Z,17.53
2019-01-15T23:54:27.023Z,14.37
2019-01-15T23:57:15.363Z,15.10
